createdAt,value
2022-08-20T00:00:45.907Z,96479.89
2022-08-20T00:03:17.957Z,96483.26
2022-08-20T00:06:06.947Z,96482.66
2022-08-20T00:08:44.860Z,96481.90
2022-08-20T00:11:17.976Z,96482.41
2022-08-20T00:13:49.873Z,96477.52
2022-08-20T00:16:23.059Z,96481.48
2022-08-20T00:18:50.945Z,96481.61
2022-08-20T00:21:19.970Z,96479.30
2022-08-20T00:23:55.456Z,96473.91
2022-08-20T00:29:05.614Z,96476.88
2022-08-20T00:31:38.686Z,96475.13
2022-08-20T00:34:06.171Z,96475.86
2022-08-20T00:36:35.617Z,96473.05
2022-08-20T00:39:06.883Z,96473.59
2022-08-20T00:41:38.107Z,96472.85
2022-08-20T00:44:13.699Z,96469.83
2022-08-20T00:46:41.698Z,96467.34
2022-08-20T00:49:21.479Z,96468.08
2022-08-20T00:51:59.452Z,96467.66
2022-08-20T00:54:51.123Z,96466.17
2022-08-20T00:57:55.496Z,96467.42
2022-08-20T01:00:37.231Z,96460.29
2022-08-20T01:03:09.172Z,96455.70
2022-08-20T01:05:38.025Z,96450.19
2022-08-20T01:08:09.508Z,96444.89
2022-08-20T01:10:39.566Z,96438.08
2022-08-20T01:13:14.444Z,96434.49
2022-08-20T01:15:45.984Z,96436.34
2022-08-20T01:18:25.707Z,96438.06
2022-08-20T01:21:02.024Z,96442.18
2022-08-20T01:24:02.613Z,96443.45
2022-08-20T01:26:37.394Z,96445.16
2022-08-20T01:29:13.131Z,96455.32
2022-08-20T01:32:00.885Z,96450.22
2022-08-20T01:34:28.930Z,96443.14
2022-08-20T01:36:57.337Z,96431.66
2022-08-20T01:39:33.303Z,96428.55
2022-08-20T01:42:13.036Z,96424.06
2022-08-20T01:44:44.531Z,96419.70
2022-08-20T01:47:20.550Z,96429.84
2022-08-20T01:49:55.361Z,96435.17
2022-08-20T01:52:33.369Z,96438.82
2022-08-20T01:55:01.309Z,96442.11
2022-08-20T01:57:28.773Z,96442.44
2022-08-20T01:59:56.237Z,96442.12
2022-08-20T02:02:25.597Z,96434.80
2022-08-20T02:04:52.540Z,96432.15
2022-08-20T02:07:31.967Z,96432.27
2022-08-20T02:10:11.001Z,96429.52
2022-08-20T02:12:39.471Z,96431.51
2022-08-20T02:15:09.955Z,96431.93
2022-08-20T02:17:41.260Z,96433.95
2022-08-20T02:20:11.323Z,96438.98
2022-08-20T02:22:50.286Z,96441.54
2022-08-20T02:25:20.924Z,96443.48
2022-08-20T02:27:51.648Z,96439.70
2022-08-20T02:33:10.915Z,96420.28
2022-08-20T02:35:40.404Z,96413.98
2022-08-20T02:38:07.497Z,96414.80
2022-08-20T02:40:35.571Z,96412.85
2022-08-20T02:43:03.908Z,96410.19
2022-08-20T02:45:43.399Z,96413.55
2022-08-20T02:48:33.058Z,96414.67
2022-08-20T02:51:05.612Z,96404.17
2022-08-20T02:53:36.274Z,96402.77
2022-08-20T02:56:03.841Z,96403.66
2022-08-20T02:58:30.822Z,96405.67
2022-08-20T03:00:58.508Z,96399.34
2022-08-20T03:03:25.507Z,96391.20
2022-08-20T03:05:55.668Z,96395.29
2022-08-20T03:08:24.007Z,96394.30
2022-08-20T03:11:00.113Z,96398.47
2022-08-20T03:13:27.441Z,96396.42
2022-08-20T03:16:00.567Z,96392.42
2022-08-20T03:18:32.562Z,96396.55
2022-08-20T03:20:59.644Z,96402.34
2022-08-20T03:23:26.977Z,96403.30
2022-08-20T03:25:53.968Z,96407.48
2022-08-20T03:28:20.970Z,96410.60
2022-08-20T03:30:57.466Z,96421.36
2022-08-20T03:33:25.228Z,96427.46
2022-08-20T03:35:52.554Z,96424.36
2022-08-20T03:38:32.854Z,96422.31
2022-08-20T03:41:02.491Z,96421.12
2022-08-20T03:43:29.993Z,96415.33
2022-08-20T03:45:57.173Z,96420.33
2022-08-20T03:48:24.819Z,96421.63
2022-08-20T03:50:52.512Z,96422.19
2022-08-20T03:53:19.518Z,96421.11
2022-08-20T03:55:54.397Z,96415.25
2022-08-20T03:58:30.075Z,96405.85
2022-08-20T04:01:06.331Z,96403.14
2022-08-20T04:03:34.222Z,96401.36
2022-08-20T04:06:01.363Z,96400.48
2022-08-20T04:08:29.033Z,96402.05
2022-08-20T04:10:57.195Z,96410.17
2022-08-20T04:13:26.772Z,96418.39
2022-08-20T04:15:57.302Z,96414.07
2022-08-20T04:18:25.912Z,96404.23
2022-08-20T04:20:54.123Z,96397.45
2022-08-20T04:23:22.226Z,96400.63
2022-08-20T04:25:49.825Z,96402.27
2022-08-20T04:28:24.885Z,96411.83
2022-08-20T04:30:52.948Z,96425.21
2022-08-20T04:33:33.296Z,96423.92
2022-08-20T04:36:05.052Z,96420.95
2022-08-20T04:38:47.817Z,96415.92
2022-08-20T04:41:23.102Z,96410.67
2022-08-20T04:43:55.273Z,96406.31
2022-08-20T04:46:24.996Z,96408.92
2022-08-20T04:48:51.664Z,96408.84
2022-08-20T04:51:19.499Z,96410.81
2022-08-20T04:53:53.759Z,96418.55
2022-08-20T04:56:27.644Z,96418.23
2022-08-20T04:58:56.778Z,96424.90
2022-08-20T05:01:24.459Z,96425.00
2022-08-20T05:03:54.112Z,96423.89
2022-08-20T05:06:24.531Z,96421.77
2022-08-20T05:08:53.109Z,96422.51
2022-08-20T05:11:34.449Z,96418.41
2022-08-20T05:14:05.495Z,96417.19
2022-08-20T05:16:37.170Z,96409.41
2022-08-20T05:19:05.454Z,96407.50
2022-08-20T05:21:32.168Z,96402.05
2022-08-20T05:23:58.894Z,96402.48
2022-08-20T05:26:26.011Z,96399.64
2022-08-20T05:28:57.715Z,96404.26
2022-08-20T05:31:32.511Z,96405.84
2022-08-20T05:34:09.705Z,96406.94
2022-08-20T05:36:49.592Z,96406.95
2022-08-20T05:39:18.530Z,96409.77
2022-08-20T05:41:50.611Z,96407.36
2022-08-20T05:44:18.501Z,96410.17
2022-08-20T05:46:47.788Z,96411.67
2022-08-20T05:49:19.006Z,96419.54
2022-08-20T05:51:46.813Z,96422.23
2022-08-20T05:54:14.289Z,96424.11
2022-08-20T05:56:41.479Z,96418.12
2022-08-20T05:59:09.961Z,96415.23
2022-08-20T06:01:38.711Z,96413.40
2022-08-20T06:04:31.269Z,96412.09
2022-08-20T06:07:03.579Z,96412.77
2022-08-20T06:09:32.639Z,96405.90
2022-08-20T06:12:05.374Z,96403.70
2022-08-20T06:14:33.028Z,96404.95
2022-08-20T06:17:26.836Z,96403.83
2022-08-20T06:20:06.795Z,96398.34
2022-08-20T06:22:34.649Z,96388.34
2022-08-20T06:25:02.608Z,96388.53
2022-08-20T06:27:30.892Z,96387.27
2022-08-20T06:29:57.975Z,96386.20
2022-08-20T06:32:32.029Z,96382.02
2022-08-20T06:35:05.738Z,96383.23
2022-08-20T06:37:38.813Z,96383.42
2022-08-20T06:40:13.386Z,96375.45
2022-08-20T06:42:47.812Z,96374.33
2022-08-20T06:45:27.575Z,96374.14
2022-08-20T06:47:58.416Z,96374.97
2022-08-20T06:50:29.527Z,96375.04
2022-08-20T06:52:57.374Z,96371.73
2022-08-20T06:55:24.107Z,96370.56
2022-08-20T06:57:59.259Z,96372.97
2022-08-20T07:00:27.931Z,96371.88
2022-08-20T07:02:55.741Z,96372.41
2022-08-20T07:05:22.913Z,96373.02
2022-08-20T07:07:50.399Z,96372.02
2022-08-20T07:10:20.150Z,96369.30
2022-08-20T07:12:49.751Z,96365.08
2022-08-20T07:15:18.443Z,96356.33
2022-08-20T07:17:51.046Z,96357.72
2022-08-20T07:20:18.235Z,96358.27
2022-08-20T07:22:45.244Z,96352.83
2022-08-20T07:25:14.222Z,96349.55
2022-08-20T07:27:42.326Z,96345.47
2022-08-20T07:30:56.154Z,96349.64
2022-08-20T07:33:29.306Z,96351.70
2022-08-20T07:35:57.505Z,96359.27
2022-08-20T07:38:26.932Z,96361.73
2022-08-20T07:40:57.852Z,96361.30
2022-08-20T07:43:25.453Z,96366.04
2022-08-20T07:45:55.610Z,96362.04
2022-08-20T07:48:31.969Z,96360.23
2022-08-20T07:51:03.822Z,96360.64
2022-08-20T07:53:35.690Z,96361.46
2022-08-20T07:56:13.258Z,96361.34
2022-08-20T07:58:49.235Z,96364.27
2022-08-20T08:01:22.069Z,96364.71
2022-08-20T08:03:49.944Z,96364.96
2022-08-20T08:06:29.939Z,96366.88
2022-08-20T08:09:03.872Z,96366.84
2022-08-20T08:11:33.974Z,96363.44
2022-08-20T08:14:02.137Z,96360.58
2022-08-20T08:16:31.997Z,96363.93
2022-08-20T08:18:59.471Z,96356.43
2022-08-20T08:21:26.353Z,96348.75
2022-08-20T08:23:53.061Z,96351.55
2022-08-20T08:26:21.382Z,96352.79
2022-08-20T08:28:48.093Z,96357.02
2022-08-20T08:31:15.461Z,96361.66
2022-08-20T08:33:42.557Z,96360.64
2022-08-20T08:36:13.926Z,96361.66
2022-08-20T08:38:43.550Z,96359.73
2022-08-20T08:41:40.022Z,96360.21
2022-08-20T08:44:12.773Z,96363.83
2022-08-20T08:46:48.768Z,96364.84
2022-08-20T08:49:25.437Z,96361.96
2022-08-20T08:52:08.222Z,96356.15
2022-08-20T08:54:36.325Z,96354.73
2022-08-20T08:57:10.875Z,96357.52
2022-08-20T08:59:58.325Z,96355.36
2022-08-20T09:02:26.262Z,96359.64
2022-08-20T09:04:56.071Z,96361.04
2022-08-20T09:07:25.913Z,96361.57
2022-08-20T09:09:53.734Z,96359.98
2022-08-20T09:12:24.382Z,96358.16
2022-08-20T09:14:51.603Z,96356.32
2022-08-20T09:17:20.824Z,96346.79
2022-08-20T09:19:48.543Z,96343.11
2022-08-20T09:22:19.385Z,96337.59
2022-08-20T09:24:46.330Z,96335.73
2022-08-20T09:27:14.154Z,96334.11
2022-08-20T09:29:41.007Z,96331.11
2022-08-20T09:32:18.839Z,96326.46
2022-08-20T09:34:57.742Z,96319.95
2022-08-20T09:37:29.276Z,96314.97
2022-08-20T09:40:01.036Z,96310.11
2022-08-20T09:42:31.405Z,96305.96
2022-08-20T09:44:58.979Z,96302.61
2022-08-20T09:47:26.448Z,96301.48
2022-08-20T09:49:53.531Z,96308.98
2022-08-20T09:52:35.145Z,96310.77
2022-08-20T09:55:25.272Z,96310.57
2022-08-20T09:57:52.691Z,96315.52
2022-08-20T10:00:20.293Z,96311.62
2022-08-20T10:02:47.461Z,96305.38
2022-08-20T10:05:14.614Z,96305.02
2022-08-20T10:07:42.160Z,96303.64
2022-08-20T10:10:11.654Z,96310.35
2022-08-20T10:12:40.917Z,96307.82
2022-08-20T10:15:08.796Z,96306.92
2022-08-20T10:17:42.854Z,96306.79
2022-08-20T10:20:12.976Z,96307.86
2022-08-20T10:22:40.343Z,96304.55
2022-08-20T10:25:07.989Z,96300.70
2022-08-20T10:27:34.725Z,96294.98
2022-08-20T10:30:05.714Z,96292.67
2022-08-20T10:32:32.599Z,96297.83
2022-08-20T10:34:59.295Z,96297.05
2022-08-20T10:37:26.343Z,96296.73
2022-08-20T10:39:53.993Z,96294.29
2022-08-20T10:42:21.624Z,96294.73
2022-08-20T10:44:48.758Z,96297.57
2022-08-20T10:47:23.788Z,96291.79
2022-08-20T10:49:52.686Z,96290.16
2022-08-20T10:52:20.281Z,96286.28
2022-08-20T10:54:47.382Z,96282.80
2022-08-20T10:57:17.937Z,96282.67
2022-08-20T10:59:47.315Z,96285.52
2022-08-20T11:02:14.923Z,96283.82
2022-08-20T11:04:41.818Z,96281.83
2022-08-20T11:07:19.271Z,96277.54
2022-08-20T11:09:48.031Z,96279.80
2022-08-20T11:12:17.036Z,96272.27
2022-08-20T11:14:43.957Z,96266.85
2022-08-20T11:17:11.446Z,96262.35
2022-08-20T11:19:41.424Z,96255.75
2022-08-20T11:22:08.890Z,96253.25
2022-08-20T11:24:35.924Z,96254.89
2022-08-20T11:27:03.484Z,96250.11
2022-08-20T11:29:33.908Z,96240.92
2022-08-20T11:32:00.970Z,96233.48
2022-08-20T11:34:27.743Z,96229.16
2022-08-20T11:36:54.489Z,96221.60
2022-08-20T11:39:21.198Z,96225.18
2022-08-20T11:41:48.126Z,96219.67
2022-08-20T11:44:22.125Z,96219.23
2022-08-20T11:46:49.294Z,96216.09
2022-08-20T11:49:16.106Z,96213.70
2022-08-20T11:51:49.362Z,96211.16
2022-08-20T11:54:17.469Z,96207.62
2022-08-20T11:56:46.052Z,96203.98
2022-08-20T11:59:15.804Z,96205.16
2022-08-20T12:02:02.488Z,96198.80
2022-08-20T12:04:30.669Z,96194.89
2022-08-20T12:07:09.575Z,96192.41
2022-08-20T12:09:36.351Z,96197.65
2022-08-20T12:12:15.803Z,96195.35
2022-08-20T12:14:42.671Z,96197.50
2022-08-20T12:17:13.089Z,96202.30
2022-08-20T12:19:41.815Z,96194.48
2022-08-20T12:22:24.333Z,96195.22
2022-08-20T12:24:54.102Z,96201.73
2022-08-20T12:27:29.644Z,96200.87
2022-08-20T12:29:59.390Z,96201.48
2022-08-20T12:32:28.467Z,96197.09
2022-08-20T12:34:56.205Z,96198.14
2022-08-20T12:37:26.620Z,96200.53
2022-08-20T12:39:58.433Z,96198.72
2022-08-20T12:42:26.805Z,96195.05
2022-08-20T12:44:53.454Z,96194.34
2022-08-20T12:47:24.125Z,96194.70
2022-08-20T12:49:57.330Z,96201.84
2022-08-20T12:52:25.154Z,96214.76
2022-08-20T12:54:53.299Z,96219.06
2022-08-20T12:57:26.038Z,96225.89
2022-08-20T12:59:52.832Z,96225.79
2022-08-20T13:02:19.656Z,96232.50
2022-08-20T13:04:46.524Z,96236.32
2022-08-20T13:07:14.438Z,96232.26
2022-08-20T13:09:42.917Z,96222.33
2022-08-20T13:12:11.194Z,96216.64
2022-08-20T13:14:38.160Z,96221.84
2022-08-20T13:17:05.378Z,96225.59
2022-08-20T13:19:35.217Z,96227.55
2022-08-20T13:22:02.646Z,96228.41
2022-08-20T13:24:29.361Z,96225.46
2022-08-20T13:27:08.395Z,96222.39
2022-08-20T13:29:36.303Z,96218.50
2022-08-20T13:32:03.501Z,96227.07
2022-08-20T13:34:30.835Z,96233.77
2022-08-20T13:36:57.547Z,96240.31
2022-08-20T13:39:24.410Z,96244.38
2022-08-20T13:41:51.173Z,96245.55
2022-08-20T13:44:17.962Z,96242.72
2022-08-20T13:46:46.559Z,96250.05
2022-08-20T13:49:13.537Z,96253.37
2022-08-20T13:51:40.764Z,96259.05
2022-08-20T13:54:07.579Z,96258.59
2022-08-20T13:56:37.556Z,96265.95
2022-08-20T13:59:04.313Z,96288.37
2022-08-20T14:01:31.042Z,96300.11
2022-08-20T14:03:57.812Z,96299.55
2022-08-20T14:06:24.639Z,96307.35
2022-08-20T14:08:51.790Z,96309.15
2022-08-20T14:11:18.811Z,96313.59
2022-08-20T14:13:45.771Z,96329.08
2022-08-20T14:16:27.216Z,96335.98
2022-08-20T14:18:55.963Z,96335.09
2022-08-20T14:21:22.656Z,96357.85
2022-08-20T14:23:49.354Z,96354.38
2022-08-20T14:26:16.301Z,96364.33
2022-08-20T14:28:43.151Z,96348.86
2022-08-20T14:31:09.956Z,96368.41
2022-08-20T14:33:38.460Z,96365.66
2022-08-20T14:36:07.336Z,96357.80
2022-08-20T14:38:34.233Z,96370.31
2022-08-20T14:41:01.447Z,96380.49
2022-08-20T14:43:28.053Z,96365.06
2022-08-20T14:45:54.760Z,96349.06
2022-08-20T14:48:23.819Z,96344.23
2022-08-20T14:50:50.663Z,96340.06
2022-08-20T14:53:17.634Z,96334.50
2022-08-20T14:55:44.343Z,96344.62
2022-08-20T14:58:13.601Z,96336.66
2022-08-20T15:00:41.948Z,96341.73
2022-08-20T15:03:09.010Z,96357.21
2022-08-20T15:05:39.739Z,96355.16
2022-08-20T15:08:08.470Z,96357.44
2022-08-20T15:10:38.750Z,96348.40
2022-08-20T15:13:05.932Z,96353.19
2022-08-20T15:15:32.757Z,96363.78
2022-08-20T15:18:00.263Z,96360.70
2022-08-20T15:20:30.504Z,96369.27
2022-08-20T15:22:58.033Z,96361.79
2022-08-20T15:25:28.986Z,96364.08
2022-08-20T15:28:06.391Z,96357.81
2022-08-20T15:30:36.357Z,96376.52
2022-08-20T15:33:03.365Z,96365.44
2022-08-20T15:35:30.427Z,96365.55
2022-08-20T15:37:58.597Z,96359.70
2022-08-20T15:40:28.731Z,96364.08
2022-08-20T15:42:58.213Z,96360.70
2022-08-20T15:45:26.726Z,96358.30
2022-08-20T15:48:16.616Z,96352.08
2022-08-20T15:51:08.050Z,96355.30
2022-08-20T15:54:07.014Z,96342.23
2022-08-20T15:56:36.641Z,96341.66
2022-08-20T15:59:06.396Z,96343.02
2022-08-20T16:02:08.277Z,96338.63
2022-08-20T16:05:09.650Z,96331.02
2022-08-20T16:07:55.069Z,96318.26
2022-08-20T16:11:09.725Z,96317.22
2022-08-20T16:13:47.596Z,96319.96
2022-08-20T16:16:29.153Z,96312.48
2022-08-20T16:18:56.421Z,96308.18
2022-08-20T16:21:37.024Z,96304.46
2022-08-20T16:24:06.613Z,96300.32
2022-08-20T16:26:46.165Z,96299.52
2022-08-20T16:29:25.979Z,96300.46
2022-08-20T16:32:02.825Z,96309.41
2022-08-20T16:34:46.870Z,96313.88
2022-08-20T16:37:35.530Z,96314.96
2022-08-20T16:40:23.589Z,96316.10
2022-08-20T16:42:52.563Z,96312.11
2022-08-20T16:45:25.406Z,96306.76
2022-08-20T16:47:56.508Z,96309.33
2022-08-20T16:50:28.442Z,96316.60
2022-08-20T16:52:55.211Z,96325.73
2022-08-20T16:55:23.161Z,96333.95
2022-08-20T16:57:52.311Z,96350.95
2022-08-20T17:00:34.374Z,96359.75
2022-08-20T17:03:04.359Z,96375.33
2022-08-20T17:05:38.069Z,96378.69
2022-08-20T17:08:07.612Z,96379.70
2022-08-20T17:10:51.840Z,96389.05
2022-08-20T17:13:30.061Z,96399.71
2022-08-20T17:15:58.279Z,96406.52
2022-08-20T17:18:31.216Z,96405.02
2022-08-20T17:21:22.729Z,96404.08
2022-08-20T17:23:56.412Z,96397.26
2022-08-20T17:26:32.189Z,96394.59
2022-08-20T17:29:05.293Z,96390.52
2022-08-20T17:31:38.945Z,96386.72
2022-08-20T17:34:20.334Z,96384.39
2022-08-20T17:36:57.854Z,96386.52
2022-08-20T17:39:28.385Z,96394.86
2022-08-20T17:42:03.427Z,96397.23
2022-08-20T17:44:35.420Z,96407.96
2022-08-20T17:47:10.691Z,96402.67
2022-08-20T17:49:44.908Z,96407.77
2022-08-20T17:52:30.271Z,96407.65
2022-08-20T17:54:57.555Z,96417.19
2022-08-20T17:57:30.151Z,96423.28
2022-08-20T18:00:13.241Z,96419.40
2022-08-20T18:02:40.554Z,96417.98
2022-08-20T18:05:20.296Z,96418.14
2022-08-20T18:08:19.713Z,96413.71
2022-08-20T18:10:56.768Z,96409.34
2022-08-20T18:13:45.090Z,96418.35
2022-08-20T18:16:55.477Z,96418.86
2022-08-20T18:19:36.239Z,96424.81
2022-08-20T18:22:02.883Z,96423.10
2022-08-20T18:24:39.077Z,96422.92
2022-08-20T18:27:13.345Z,96426.67
2022-08-20T18:29:43.975Z,96426.65
2022-08-20T18:32:28.873Z,96428.74
2022-08-20T18:35:18.824Z,96427.79
2022-08-20T18:37:46.311Z,96423.20
2022-08-20T18:40:41.066Z,96421.61
2022-08-20T18:43:16.227Z,96419.57
2022-08-20T18:45:44.159Z,96415.95
2022-08-20T18:48:24.112Z,96410.27
2022-08-20T18:50:56.125Z,96404.27
2022-08-20T18:53:33.926Z,96403.44
2022-08-20T18:56:11.448Z,96405.56
2022-08-20T18:59:04.773Z,96405.19
2022-08-20T19:01:35.856Z,96396.66
2022-08-20T19:04:16.225Z,96396.16
2022-08-20T19:06:56.866Z,96396.60
2022-08-20T19:09:46.426Z,96398.70
2022-08-20T19:12:45.983Z,96396.34
2022-08-20T19:15:18.610Z,96386.32
2022-08-20T19:17:53.658Z,96382.80
2022-08-20T19:20:24.900Z,96377.88
2022-08-20T19:22:54.794Z,96382.52
2022-08-20T19:25:29.471Z,96380.67
2022-08-20T19:27:59.361Z,96379.21
2022-08-20T19:30:40.785Z,96380.80
2022-08-20T19:33:08.962Z,96377.28
2022-08-20T19:35:37.176Z,96375.87
2022-08-20T19:38:07.701Z,96377.98
2022-08-20T19:41:11.079Z,96372.58
2022-08-20T19:43:44.093Z,96378.61
2022-08-20T19:46:15.301Z,96379.17
2022-08-20T19:49:10.270Z,96383.60
2022-08-20T19:52:14.513Z,96384.21
2022-08-20T19:54:50.776Z,96386.27
2022-08-20T19:57:18.999Z,96383.75
2022-08-20T20:00:12.742Z,96375.60
2022-08-20T20:02:41.036Z,96373.52
2022-08-20T20:05:09.564Z,96375.13
2022-08-20T20:07:43.365Z,96375.42
2022-08-20T20:10:23.216Z,96376.77
2022-08-20T20:12:50.317Z,96372.34
2022-08-20T20:15:17.989Z,96379.09
2022-08-20T20:17:45.314Z,96373.58
2022-08-20T20:20:23.198Z,96369.96
2022-08-20T20:23:14.081Z,96368.71
2022-08-20T20:25:44.493Z,96367.59
2022-08-20T20:28:29.380Z,96359.45
2022-08-20T20:31:12.692Z,96360.98
2022-08-20T20:33:44.256Z,96360.16
2022-08-20T20:36:17.654Z,96356.09
2022-08-20T20:39:23.644Z,96352.79
2022-08-20T20:41:53.275Z,96346.64
2022-08-20T20:44:24.463Z,96346.55
2022-08-20T20:47:00.245Z,96355.98
2022-08-20T20:49:30.445Z,96360.86
2022-08-20T20:52:04.473Z,96359.80
2022-08-20T20:54:41.469Z,96363.90
2022-08-20T20:57:32.709Z,96370.34
2022-08-20T21:00:16.782Z,96372.82
2022-08-20T21:02:44.834Z,96375.61
2022-08-20T21:05:14.986Z,96375.45
2022-08-20T21:07:52.607Z,96377.42
2022-08-20T21:10:23.128Z,96375.06
2022-08-20T21:12:52.929Z,96367.98
2022-08-20T21:15:22.974Z,96365.27
2022-08-20T21:17:50.777Z,96363.40
2022-08-20T21:20:18.027Z,96360.91
2022-08-20T21:22:44.923Z,96357.45
2022-08-20T21:25:11.965Z,96357.88
2022-08-20T21:27:43.855Z,96362.21
2022-08-20T21:30:11.301Z,96366.70
2022-08-20T21:32:38.142Z,96364.45
2022-08-20T21:35:05.401Z,96365.48
2022-08-20T21:37:32.144Z,96366.33
2022-08-20T21:39:58.979Z,96369.08
2022-08-20T21:42:29.278Z,96367.95
2022-08-20T21:44:58.509Z,96366.12
2022-08-20T21:47:25.880Z,96362.88
2022-08-20T21:49:52.918Z,96363.28
2022-08-20T21:52:19.673Z,96357.91
2022-08-20T21:54:46.444Z,96357.41
2022-08-20T21:57:27.095Z,96353.09
2022-08-20T21:59:55.508Z,96350.91
2022-08-20T22:02:25.305Z,96349.31
2022-08-20T22:04:54.023Z,96347.38
2022-08-20T22:07:21.531Z,96345.55
2022-08-20T22:09:48.451Z,96342.91
2022-08-20T22:12:19.754Z,96340.34
2022-08-20T22:14:46.988Z,96342.19
2022-08-20T22:17:14.748Z,96341.68
2022-08-20T22:19:41.643Z,96341.09
2022-08-20T22:22:13.997Z,96339.29
2022-08-20T22:24:41.931Z,96337.06
2022-08-20T22:27:08.737Z,96330.48
2022-08-20T22:29:35.558Z,96325.98
2022-08-20T22:32:03.309Z,96322.71
2022-08-20T22:34:33.049Z,96323.86
2022-08-20T22:37:03.260Z,96320.27
2022-08-20T22:39:29.976Z,96321.72
2022-08-20T22:41:56.677Z,96323.80
2022-08-20T22:44:23.570Z,96325.92
2022-08-20T22:46:55.790Z,96323.39
2022-08-20T22:49:28.635Z,96328.16
2022-08-20T22:51:56.712Z,96322.95
2022-08-20T22:54:24.525Z,96320.11
2022-08-20T22:56:52.729Z,96318.34
2022-08-20T22:59:21.486Z,96313.17
2022-08-20T23:01:50.763Z,96311.33
2022-08-20T23:04:27.808Z,96306.50
2022-08-20T23:06:56.670Z,96305.57
2022-08-20T23:09:23.440Z,96306.52
2022-08-20T23:11:51.670Z,96313.15
2022-08-20T23:14:19.099Z,96313.98
2022-08-20T23:16:48.820Z,96312.46
2022-08-20T23:19:22.440Z,96311.50
2022-08-20T23:21:50.384Z,96310.48
2022-08-20T23:24:18.546Z,96310.80
2022-08-20T23:26:52.579Z,96310.34
2022-08-20T23:29:25.830Z,96310.52
2022-08-20T23:31:56.708Z,96312.20
2022-08-20T23:34:25.487Z,96307.49
2022-08-20T23:36:53.644Z,96305.54
2022-08-20T23:39:20.854Z,96300.21
2022-08-20T23:41:48.172Z,96302.84
2022-08-20T23:44:25.498Z,96307.39
2022-08-20T23:47:01.544Z,96306.14
2022-08-20T23:49:29.833Z,96307.64
2022-08-20T23:51:59.516Z,96305.59
2022-08-20T23:54:27.980Z,96307.38
2022-08-20T23:56:56.810Z,96309.99
2022-08-20T23:59:24.925Z,96311.58
